createdAt,value
2016-09-25T00:00:13.544Z,20.63
2016-09-25T00:01:13.743Z,20.63
2016-09-25T00:02:12.960Z,20.62
2016-09-25T00:03:10.458Z,20.62
2016-09-25T00:04:13.674Z,20.63
2016-09-25T00:05:10.995Z,20.61
2016-09-25T00:06:12.913Z,21.17
2016-09-25T00:07:13.797Z,21.23
2016-09-25T00:08:14.109Z,21.24
2016-09-25T00:09:13.581Z,20.73
2016-09-25T00:10:12.057Z,20.68
2016-09-25T00:11:11.238Z,20.65
2016-09-25T00:12:12.764Z,21.18
2016-09-25T00:13:12.664Z,21.24
2016-09-25T00:14:13.743Z,21.26
2016-09-25T00:15:13.404Z,21.27
2016-09-25T00:16:13.621Z,21.27
2016-09-25T00:17:10.498Z,21.27
2016-09-25T00:18:13.835Z,20.75
2016-09-25T00:19:13.067Z,20.69
2016-09-25T00:20:13.184Z,20.66
2016-09-25T00:21:12.648Z,20.65
2016-09-25T00:22:12.500Z,20.64
2016-09-25T00:23:13.146Z,20.65
2016-09-25T00:24:10.455Z,20.63
2016-09-25T00:25:10.995Z,20.63
2016-09-25T00:26:12.636Z,20.63
2016-09-25T00:27:14.072Z,20.63
2016-09-25T00:28:13.081Z,20.63
2016-09-25T00:29:14.021Z,20.62
2016-09-25T00:30:12.350Z,20.63
2016-09-25T00:31:12.676Z,20.63
2016-09-25T00:32:11.954Z,20.64
2016-09-25T00:33:14.077Z,20.62
2016-09-25T00:34:14.171Z,20.63
2016-09-25T00:35:13.696Z,20.62
2016-09-25T00:36:13.674Z,20.63
2016-09-25T00:37:09.819Z,20.62
2016-09-25T00:38:13.516Z,20.63
2016-09-25T00:39:13.942Z,20.63
2016-09-25T00:40:12.678Z,20.62
2016-09-25T00:41:12.901Z,20.63
2016-09-25T00:42:13.200Z,20.63
2016-09-25T00:43:14.342Z,20.62
2016-09-25T00:44:13.617Z,20.67
2016-09-25T00:45:13.406Z,20.62
2016-09-25T00:46:13.466Z,20.65
2016-09-25T00:47:12.013Z,20.62
2016-09-25T00:48:13.286Z,20.62
2016-09-25T00:49:13.309Z,20.63
2016-09-25T00:50:16.410Z,20.62
2016-09-25T00:51:15.122Z,20.63
2016-09-25T00:52:12.676Z,20.62
2016-09-25T00:53:12.589Z,20.62
2016-09-25T00:54:14.024Z,20.62
2016-09-25T00:55:13.686Z,20.62
2016-09-25T00:56:13.588Z,20.62
2016-09-25T00:57:13.580Z,20.62
2016-09-25T00:58:12.936Z,20.62
2016-09-25T00:59:13.033Z,20.63
2016-09-25T01:00:13.820Z,20.62
2016-09-25T01:01:10.499Z,20.61
2016-09-25T01:02:14.863Z,20.62
2016-09-25T01:03:09.909Z,20.62
2016-09-25T01:04:13.983Z,21.16
2016-09-25T01:05:13.718Z,21.21
2016-09-25T01:06:13.352Z,21.25
2016-09-25T01:07:14.684Z,21.26
2016-09-25T01:08:15.554Z,20.73
2016-09-25T01:09:13.542Z,20.68
2016-09-25T01:10:12.737Z,20.66
2016-09-25T01:11:13.873Z,20.64
2016-09-25T01:12:13.510Z,20.64
2016-09-25T01:13:12.025Z,20.63
2016-09-25T01:14:14.233Z,20.63
2016-09-25T01:15:15.074Z,20.63
2016-09-25T01:16:14.864Z,20.63
2016-09-25T01:17:13.846Z,21.15
2016-09-25T01:18:13.352Z,21.23
2016-09-25T01:19:12.616Z,20.72
2016-09-25T01:20:15.531Z,20.67
2016-09-25T01:21:13.822Z,20.66
2016-09-25T01:22:13.541Z,20.66
2016-09-25T01:23:13.550Z,20.68
2016-09-25T01:24:15.665Z,20.63
2016-09-25T01:25:12.873Z,20.64
2016-09-25T01:26:13.140Z,20.64
2016-09-25T01:27:14.019Z,20.63
2016-09-25T01:28:13.076Z,20.63
2016-09-25T01:29:13.464Z,20.63
2016-09-25T01:30:13.961Z,20.63
2016-09-25T01:31:11.278Z,20.62
2016-09-25T01:32:13.671Z,20.64
2016-09-25T01:33:12.439Z,20.63
2016-09-25T01:34:14.574Z,20.63
2016-09-25T01:35:13.176Z,20.63
2016-09-25T01:36:12.667Z,20.63
2016-09-25T01:37:12.407Z,20.63
2016-09-25T01:38:14.265Z,20.63
2016-09-25T01:39:14.408Z,20.63
2016-09-25T01:40:14.064Z,20.66
2016-09-25T01:41:11.999Z,20.62
2016-09-25T01:42:13.813Z,20.63
2016-09-25T01:43:13.481Z,20.67
2016-09-25T01:44:15.079Z,20.64
2016-09-25T01:45:12.353Z,20.63
2016-09-25T01:46:13.500Z,20.62
2016-09-25T01:47:13.933Z,20.63
2016-09-25T01:48:13.430Z,20.63
2016-09-25T01:49:10.233Z,20.63
2016-09-25T01:50:13.317Z,20.63
2016-09-25T01:51:16.173Z,20.63
2016-09-25T01:52:14.608Z,20.65
2016-09-25T01:53:15.177Z,20.64
2016-09-25T01:54:12.088Z,20.63
2016-09-25T01:55:13.144Z,20.63
2016-09-25T01:56:13.627Z,20.67
2016-09-25T01:57:13.484Z,20.63
2016-09-25T01:58:12.486Z,20.62
2016-09-25T01:59:13.292Z,20.63
2016-09-25T02:00:13.264Z,20.64
2016-09-25T02:01:13.648Z,20.63
2016-09-25T02:02:12.947Z,20.63
2016-09-25T02:03:12.484Z,20.62
2016-09-25T02:04:15.054Z,20.63
2016-09-25T02:05:14.960Z,20.63
2016-09-25T02:06:14.011Z,20.63
2016-09-25T02:07:14.534Z,20.63
2016-09-25T02:08:15.096Z,20.62
2016-09-25T02:09:12.379Z,20.63
2016-09-25T02:10:13.421Z,20.63
2016-09-25T02:11:09.800Z,20.62
2016-09-25T02:12:13.182Z,20.63
2016-09-25T02:13:13.193Z,20.63
2016-09-25T02:14:14.029Z,20.63
2016-09-25T02:15:14.058Z,20.63
2016-09-25T02:16:15.244Z,20.62
2016-09-25T02:17:14.298Z,20.63
2016-09-25T02:18:13.612Z,20.62
2016-09-25T02:19:12.160Z,20.70
2016-09-25T02:20:13.768Z,20.63
2016-09-25T02:21:12.336Z,20.62
2016-09-25T02:22:14.249Z,20.62
2016-09-25T02:23:14.079Z,20.62
2016-09-25T02:24:13.350Z,20.63
2016-09-25T02:25:13.881Z,20.62
2016-09-25T02:26:13.498Z,20.67
2016-09-25T02:27:13.582Z,20.62
2016-09-25T02:28:13.387Z,20.62
2016-09-25T02:29:11.533Z,20.62
2016-09-25T02:30:13.713Z,21.15
2016-09-25T02:31:13.468Z,21.22
2016-09-25T02:32:13.722Z,21.23
2016-09-25T02:33:12.096Z,21.26
2016-09-25T02:34:13.361Z,21.26
2016-09-25T02:35:13.637Z,21.26
2016-09-25T02:36:13.887Z,20.74
2016-09-25T02:37:16.453Z,20.68
2016-09-25T02:38:13.312Z,20.66
2016-09-25T02:39:13.057Z,20.65
2016-09-25T02:40:14.510Z,20.64
2016-09-25T02:41:14.006Z,20.63
2016-09-25T02:42:14.190Z,20.68
2016-09-25T02:43:13.675Z,20.63
2016-09-25T02:44:12.366Z,20.62
2016-09-25T02:45:13.509Z,20.63
2016-09-25T02:46:13.916Z,20.66
2016-09-25T02:47:15.135Z,20.63
2016-09-25T02:48:14.768Z,20.62
2016-09-25T02:49:09.954Z,20.62
2016-09-25T02:50:19.233Z,20.66
2016-09-25T02:51:11.153Z,20.62
2016-09-25T02:52:13.561Z,20.66
2016-09-25T02:53:09.642Z,20.62
2016-09-25T02:54:13.167Z,20.86
2016-09-25T02:55:12.028Z,20.68
2016-09-25T02:56:14.356Z,20.65
2016-09-25T02:57:13.188Z,20.64
2016-09-25T02:58:13.405Z,20.64
2016-09-25T02:59:12.171Z,20.63
2016-09-25T03:00:13.581Z,20.67
2016-09-25T03:01:13.267Z,20.62
2016-09-25T03:02:13.181Z,20.62
2016-09-25T03:03:13.575Z,20.64
2016-09-25T03:04:13.368Z,20.62
2016-09-25T03:05:12.572Z,20.65
2016-09-25T03:06:13.841Z,20.62
2016-09-25T03:07:12.448Z,20.62
2016-09-25T03:08:12.553Z,20.61
2016-09-25T03:09:12.551Z,20.61
2016-09-25T03:10:13.074Z,20.66
2016-09-25T03:11:14.108Z,20.61
2016-09-25T03:12:10.184Z,20.61
2016-09-25T03:13:13.951Z,20.61
2016-09-25T03:14:14.533Z,20.61
2016-09-25T03:15:13.112Z,20.61
2016-09-25T03:16:13.610Z,20.61
2016-09-25T03:17:13.276Z,20.61
2016-09-25T03:18:13.180Z,20.61
2016-09-25T03:19:13.796Z,20.61
2016-09-25T03:20:14.488Z,20.62
2016-09-25T03:21:13.552Z,20.65
2016-09-25T03:22:12.183Z,20.62
2016-09-25T03:23:13.081Z,20.65
2016-09-25T03:24:13.800Z,20.62
2016-09-25T03:25:12.240Z,20.62
2016-09-25T03:26:15.024Z,20.64
2016-09-25T03:27:13.920Z,20.62
2016-09-25T03:28:13.028Z,20.62
2016-09-25T03:29:13.922Z,20.61
2016-09-25T03:30:13.180Z,20.62
2016-09-25T03:31:13.190Z,20.61
2016-09-25T03:32:13.492Z,20.61
2016-09-25T03:33:13.385Z,20.62
2016-09-25T03:34:10.980Z,20.61
2016-09-25T03:35:13.685Z,20.62
2016-09-25T03:36:13.220Z,20.63
2016-09-25T03:37:13.274Z,20.61
2016-09-25T03:38:14.200Z,20.61
2016-09-25T03:39:13.368Z,20.61
2016-09-25T03:40:10.510Z,20.61
2016-09-25T03:41:13.095Z,20.65
2016-09-25T03:42:11.940Z,20.61
2016-09-25T03:43:13.013Z,20.61
2016-09-25T03:44:12.909Z,20.62
2016-09-25T03:45:14.335Z,20.61
2016-09-25T03:46:13.676Z,20.61
2016-09-25T03:47:12.431Z,20.62
2016-09-25T03:48:12.834Z,20.62
2016-09-25T03:49:13.341Z,20.68
2016-09-25T03:50:13.134Z,20.62
2016-09-25T03:51:13.398Z,20.62
2016-09-25T03:52:12.926Z,20.61
2016-09-25T03:53:13.868Z,20.62
2016-09-25T03:54:10.431Z,20.61
2016-09-25T03:55:13.723Z,20.61
2016-09-25T03:56:12.489Z,20.61
2016-09-25T03:57:14.255Z,20.61
2016-09-25T03:58:14.271Z,20.61
2016-09-25T03:59:13.463Z,20.62
2016-09-25T04:00:12.910Z,20.65
2016-09-25T04:01:11.886Z,20.60
2016-09-25T04:02:12.513Z,20.62
2016-09-25T04:03:14.633Z,20.61
2016-09-25T04:04:10.655Z,20.61
2016-09-25T04:05:13.710Z,20.61
2016-09-25T04:06:15.033Z,20.61
2016-09-25T04:07:13.745Z,20.64
2016-09-25T04:08:12.167Z,20.61
2016-09-25T04:09:13.245Z,20.62
2016-09-25T04:10:13.415Z,20.61
2016-09-25T04:11:13.442Z,20.61
2016-09-25T04:12:12.916Z,20.62
2016-09-25T04:13:13.010Z,20.64
2016-09-25T04:14:13.715Z,20.61
2016-09-25T04:15:12.964Z,20.65
2016-09-25T04:16:12.827Z,20.61
2016-09-25T04:17:12.201Z,20.61
2016-09-25T04:18:11.293Z,20.60
2016-09-25T04:19:12.839Z,20.62
2016-09-25T04:20:13.648Z,20.61
2016-09-25T04:21:12.597Z,20.60
2016-09-25T04:22:18.354Z,20.61
2016-09-25T04:23:11.610Z,20.60
2016-09-25T04:24:12.854Z,21.14
2016-09-25T04:25:17.030Z,20.66
2016-09-25T04:26:16.847Z,20.68
2016-09-25T04:27:17.115Z,20.62
2016-09-25T04:28:14.092Z,20.62
2016-09-25T04:29:13.251Z,20.61
2016-09-25T04:30:12.895Z,20.61
2016-09-25T04:31:13.459Z,20.62
2016-09-25T04:32:13.733Z,20.61
2016-09-25T04:33:13.804Z,20.66
2016-09-25T04:34:13.166Z,20.61
2016-09-25T04:35:13.226Z,20.61
2016-09-25T04:36:11.755Z,20.61
2016-09-25T04:37:12.790Z,20.61
2016-09-25T04:38:13.395Z,20.61
2016-09-25T04:39:13.867Z,20.61
2016-09-25T04:40:12.325Z,20.62
2016-09-25T04:41:14.330Z,20.65
2016-09-25T04:42:12.653Z,20.61
2016-09-25T04:43:13.168Z,20.61
2016-09-25T04:44:10.826Z,20.60
2016-09-25T04:45:12.649Z,20.60
2016-09-25T04:46:13.733Z,20.61
2016-09-25T04:47:12.794Z,20.67
2016-09-25T04:48:13.849Z,20.64
2016-09-25T04:49:18.469Z,20.61
2016-09-25T04:50:14.302Z,20.61
2016-09-25T04:51:14.107Z,20.60
2016-09-25T04:52:13.238Z,20.61
2016-09-25T04:53:13.495Z,20.65
2016-09-25T04:54:13.038Z,20.62
2016-09-25T04:55:13.551Z,20.61
2016-09-25T04:56:14.140Z,20.61
2016-09-25T04:57:13.137Z,20.62
2016-09-25T04:58:13.509Z,20.62
2016-09-25T04:59:12.204Z,20.62
2016-09-25T05:00:12.563Z,20.62
2016-09-25T05:01:12.863Z,20.67
2016-09-25T05:02:14.018Z,20.66
2016-09-25T05:03:12.901Z,20.62
2016-09-25T05:04:13.375Z,20.62
2016-09-25T05:05:13.190Z,20.62
2016-09-25T05:06:13.349Z,20.62
2016-09-25T05:07:13.532Z,20.62
2016-09-25T05:08:10.766Z,20.62
2016-09-25T05:09:13.458Z,20.65
2016-09-25T05:10:12.925Z,20.63
2016-09-25T05:11:12.796Z,20.63
2016-09-25T05:12:13.023Z,20.63
2016-09-25T05:13:13.150Z,20.64
2016-09-25T05:14:12.945Z,20.63
2016-09-25T05:15:12.913Z,20.72
2016-09-25T05:16:15.757Z,21.18
2016-09-25T05:17:13.426Z,21.24
2016-09-25T05:18:13.685Z,21.27
2016-09-25T05:19:13.639Z,20.75
2016-09-25T05:20:12.675Z,20.69
2016-09-25T05:21:13.209Z,20.71
2016-09-25T05:22:14.188Z,20.87
2016-09-25T05:23:13.347Z,20.76
2016-09-25T05:24:13.510Z,20.69
2016-09-25T05:25:13.730Z,20.71
2016-09-25T05:26:13.484Z,20.72
2016-09-25T05:27:12.859Z,20.74
2016-09-25T05:28:14.008Z,20.80
2016-09-25T05:29:13.313Z,20.77
2016-09-25T05:30:15.560Z,20.78
2016-09-25T05:31:13.455Z,20.79
2016-09-25T05:32:10.490Z,20.80
2016-09-25T05:33:13.957Z,20.82
2016-09-25T05:34:13.530Z,20.83
2016-09-25T05:35:12.641Z,20.87
2016-09-25T05:36:12.273Z,20.85
2016-09-25T05:37:14.548Z,20.90
2016-09-25T05:38:12.217Z,20.90
2016-09-25T05:39:13.332Z,20.88
2016-09-25T05:40:12.576Z,20.88
2016-09-25T05:41:13.701Z,20.88
2016-09-25T05:42:12.271Z,20.89
2016-09-25T05:43:13.395Z,20.90
2016-09-25T05:44:12.734Z,20.91
2016-09-25T05:45:12.280Z,20.92
2016-09-25T05:46:14.541Z,20.92
2016-09-25T05:47:12.608Z,20.92
2016-09-25T05:48:14.465Z,20.95
2016-09-25T05:49:13.840Z,21.00
2016-09-25T05:50:13.155Z,20.96
2016-09-25T05:51:13.392Z,20.96
2016-09-25T05:52:12.637Z,20.97
2016-09-25T05:53:13.639Z,21.01
2016-09-25T05:54:12.601Z,20.97
2016-09-25T05:55:13.858Z,20.97
2016-09-25T05:56:13.480Z,21.00
2016-09-25T05:57:11.620Z,20.97
2016-09-25T05:58:13.828Z,20.98
2016-09-25T05:59:13.689Z,21.04
2016-09-25T06:00:13.671Z,20.99
2016-09-25T06:01:13.405Z,20.99
2016-09-25T06:02:14.962Z,20.99
2016-09-25T06:03:12.688Z,21.09
2016-09-25T06:04:18.114Z,21.19
2016-09-25T06:05:13.522Z,21.06
2016-09-25T06:06:12.623Z,21.06
2016-09-25T06:07:13.085Z,21.02
2016-09-25T06:08:12.860Z,21.03
2016-09-25T06:09:14.394Z,20.99
2016-09-25T06:10:18.737Z,21.00
2016-09-25T06:11:12.291Z,21.01
2016-09-25T06:12:13.094Z,21.01
2016-09-25T06:13:13.567Z,21.02
2016-09-25T06:14:12.926Z,21.02
2016-09-25T06:15:13.053Z,21.03
2016-09-25T06:16:13.172Z,21.04
2016-09-25T06:17:13.720Z,21.07
2016-09-25T06:18:13.322Z,21.57
2016-09-25T06:19:12.959Z,21.27
2016-09-25T06:20:13.390Z,21.13
2016-09-25T06:21:12.687Z,21.10
2016-09-25T06:22:12.252Z,21.08
2016-09-25T06:23:12.624Z,21.08
2016-09-25T06:24:12.583Z,21.08
2016-09-25T06:25:12.972Z,21.07
2016-09-25T06:26:12.508Z,21.08
2016-09-25T06:27:13.691Z,21.08
2016-09-25T06:28:13.040Z,21.08
2016-09-25T06:29:14.634Z,21.08
2016-09-25T06:30:13.175Z,21.08
2016-09-25T06:31:12.965Z,21.09
2016-09-25T06:32:13.984Z,21.09
2016-09-25T06:33:13.695Z,21.09
2016-09-25T06:34:12.088Z,21.10
2016-09-25T06:35:14.378Z,21.11
2016-09-25T06:36:13.149Z,21.10
2016-09-25T06:37:13.179Z,21.08
2016-09-25T06:38:13.231Z,21.06
2016-09-25T06:39:14.557Z,21.02
2016-09-25T06:40:14.575Z,21.04
2016-09-25T06:41:13.280Z,21.03
2016-09-25T06:42:14.123Z,21.11
2016-09-25T06:43:13.215Z,21.07
2016-09-25T06:44:13.141Z,21.08
2016-09-25T06:45:13.521Z,21.08
2016-09-25T06:46:12.198Z,21.08
2016-09-25T06:47:13.126Z,21.08
2016-09-25T06:48:13.280Z,21.07
2016-09-25T06:49:12.916Z,21.07
2016-09-25T06:50:12.781Z,21.08
2016-09-25T06:51:11.196Z,21.07
2016-09-25T06:52:13.270Z,21.05
2016-09-25T06:53:14.346Z,21.01
2016-09-25T06:54:13.722Z,21.00
2016-09-25T06:55:12.496Z,21.00
2016-09-25T06:56:12.767Z,20.98
2016-09-25T06:57:12.738Z,20.97
2016-09-25T06:58:13.892Z,20.96
2016-09-25T06:59:13.950Z,20.95
2016-09-25T07:00:13.179Z,20.99
2016-09-25T07:01:19.082Z,20.98
2016-09-25T07:02:12.554Z,20.95
2016-09-25T07:03:12.732Z,20.95
2016-09-25T07:04:12.275Z,20.95
2016-09-25T07:05:10.333Z,20.93
2016-09-25T07:06:12.125Z,21.46
2016-09-25T07:07:13.404Z,21.52
2016-09-25T07:08:13.223Z,21.56
2016-09-25T07:09:12.935Z,21.55
2016-09-25T07:10:10.527Z,21.56
2016-09-25T07:11:14.666Z,21.55
2016-09-25T07:12:13.351Z,21.59
2016-09-25T07:13:13.177Z,21.70
2016-09-25T07:14:13.355Z,21.80
2016-09-25T07:15:13.166Z,21.85
2016-09-25T07:16:13.451Z,21.99
2016-09-25T07:17:13.797Z,22.06
2016-09-25T07:18:12.917Z,22.00
2016-09-25T07:19:13.291Z,21.93
2016-09-25T07:20:12.199Z,21.91
2016-09-25T07:21:12.968Z,21.89
2016-09-25T07:22:12.440Z,21.88
2016-09-25T07:23:13.889Z,21.33
2016-09-25T07:24:13.190Z,21.30
2016-09-25T07:25:14.730Z,21.24
2016-09-25T07:26:12.252Z,21.21
2016-09-25T07:27:13.004Z,21.20
2016-09-25T07:28:13.205Z,21.19
2016-09-25T07:29:13.118Z,21.18
2016-09-25T07:30:13.258Z,21.17
2016-09-25T07:31:13.989Z,21.21
2016-09-25T07:32:14.036Z,21.15
2016-09-25T07:33:17.206Z,21.14
2016-09-25T07:34:14.112Z,21.13
2016-09-25T07:35:13.837Z,21.12
2016-09-25T07:36:13.238Z,21.16
2016-09-25T07:37:12.376Z,21.12
2016-09-25T07:38:14.385Z,21.10
2016-09-25T07:39:13.209Z,21.10
2016-09-25T07:40:13.280Z,21.10
2016-09-25T07:41:13.641Z,21.10
2016-09-25T07:42:14.435Z,21.08
2016-09-25T07:43:13.539Z,21.09
2016-09-25T07:44:11.762Z,21.09
2016-09-25T07:45:12.888Z,21.09
2016-09-25T07:46:12.387Z,21.10
2016-09-25T07:47:13.498Z,21.10
2016-09-25T07:48:14.098Z,21.10
2016-09-25T07:49:13.842Z,21.09
2016-09-25T07:50:12.627Z,21.62
2016-09-25T07:51:13.760Z,21.69
2016-09-25T07:52:15.006Z,21.71
2016-09-25T07:53:14.845Z,21.73
2016-09-25T07:54:12.179Z,21.21
2016-09-25T07:55:12.832Z,21.16
2016-09-25T07:56:10.652Z,21.13
2016-09-25T07:57:13.579Z,21.66
2016-09-25T07:58:09.748Z,21.70
2016-09-25T07:59:13.793Z,21.72
2016-09-25T08:00:13.388Z,21.75
2016-09-25T08:01:13.598Z,21.78
2016-09-25T08:02:12.259Z,21.79
2016-09-25T08:03:13.498Z,21.45
2016-09-25T08:04:14.587Z,21.31
2016-09-25T08:05:12.437Z,21.23
2016-09-25T08:06:12.648Z,21.23
2016-09-25T08:07:13.414Z,21.20
2016-09-25T08:08:12.157Z,21.20
2016-09-25T08:09:13.239Z,21.20
2016-09-25T08:10:13.850Z,21.23
2016-09-25T08:11:12.888Z,21.73
2016-09-25T08:12:12.144Z,21.79
2016-09-25T08:13:13.579Z,21.82
2016-09-25T08:14:12.464Z,21.31
2016-09-25T08:15:12.142Z,21.28
2016-09-25T08:16:13.018Z,21.26
2016-09-25T08:17:12.989Z,21.23
2016-09-25T08:18:13.395Z,21.23
2016-09-25T08:19:14.733Z,21.23
2016-09-25T08:20:12.462Z,21.22
2016-09-25T08:21:13.407Z,21.21
2016-09-25T08:22:11.843Z,21.19
2016-09-25T08:23:12.678Z,21.19
2016-09-25T08:24:12.783Z,21.19
2016-09-25T08:25:13.955Z,21.18
2016-09-25T08:26:10.998Z,21.18
2016-09-25T08:27:14.196Z,21.39
2016-09-25T08:28:12.919Z,21.24
2016-09-25T08:29:12.277Z,21.23
2016-09-25T08:30:12.549Z,21.23
2016-09-25T08:31:12.366Z,21.26
2016-09-25T08:32:12.276Z,21.24
2016-09-25T08:33:14.647Z,21.23
2016-09-25T08:34:12.435Z,21.23
2016-09-25T08:35:13.499Z,21.27
2016-09-25T08:36:12.242Z,21.23
2016-09-25T08:37:13.555Z,21.20
2016-09-25T08:38:12.970Z,21.19
2016-09-25T08:39:12.959Z,21.19
2016-09-25T08:40:12.605Z,21.18
2016-09-25T08:41:12.631Z,21.17
2016-09-25T08:42:12.465Z,21.19
2016-09-25T08:43:11.834Z,21.16
2016-09-25T08:44:15.372Z,21.16
2016-09-25T08:45:13.905Z,21.16
2016-09-25T08:46:14.597Z,21.15
2016-09-25T08:47:11.774Z,21.15
2016-09-25T08:48:14.909Z,21.14
2016-09-25T08:49:12.941Z,21.18
2016-09-25T08:50:12.911Z,21.14
2016-09-25T08:51:13.276Z,21.19
2016-09-25T08:52:09.112Z,21.13
2016-09-25T08:53:10.509Z,21.13
2016-09-25T08:54:12.868Z,21.15
2016-09-25T08:55:12.256Z,21.13
2016-09-25T08:56:12.770Z,21.13
2016-09-25T08:57:15.517Z,21.12
2016-09-25T08:58:13.679Z,21.12
2016-09-25T08:59:10.344Z,21.12
2016-09-25T09:00:14.137Z,21.12
2016-09-25T09:01:11.444Z,21.12
2016-09-25T09:02:13.904Z,21.31
2016-09-25T09:03:10.058Z,21.17
2016-09-25T09:04:13.165Z,21.14
2016-09-25T09:05:13.619Z,21.14
2016-09-25T09:06:13.610Z,21.15
2016-09-25T09:07:12.183Z,21.16
2016-09-25T09:08:12.575Z,21.11
2016-09-25T09:09:11.959Z,21.11
2016-09-25T09:10:12.544Z,21.11
2016-09-25T09:11:13.289Z,21.11
2016-09-25T09:12:12.327Z,21.11
2016-09-25T09:13:13.751Z,21.11
2016-09-25T09:14:11.925Z,21.11
2016-09-25T09:15:13.917Z,21.11
2016-09-25T09:16:13.868Z,21.11
2016-09-25T09:17:10.536Z,21.10
2016-09-25T09:18:12.932Z,21.64
2016-09-25T09:19:13.234Z,21.34
2016-09-25T09:20:12.927Z,21.19
2016-09-25T09:21:13.340Z,21.14
2016-09-25T09:22:14.246Z,21.12
2016-09-25T09:23:13.744Z,21.11
2016-09-25T09:24:12.575Z,21.14
2016-09-25T09:25:11.927Z,21.09
2016-09-25T09:26:13.585Z,21.08
2016-09-25T09:27:14.786Z,21.08
2016-09-25T09:28:12.876Z,21.11
2016-09-25T09:29:12.581Z,21.11
2016-09-25T09:30:12.964Z,21.07
2016-09-25T09:31:13.389Z,21.10
2016-09-25T09:32:12.928Z,21.07
2016-09-25T09:33:12.621Z,21.07
2016-09-25T09:34:12.550Z,21.08
2016-09-25T09:35:10.675Z,21.06
2016-09-25T09:36:12.738Z,21.06
2016-09-25T09:37:12.762Z,21.05
2016-09-25T09:38:12.444Z,21.09
2016-09-25T09:39:13.460Z,21.11
2016-09-25T09:40:13.182Z,21.09
2016-09-25T09:41:12.708Z,21.05
2016-09-25T09:42:14.273Z,21.05
2016-09-25T09:43:13.892Z,21.05
2016-09-25T09:44:13.552Z,21.05
2016-09-25T09:45:13.833Z,21.06
2016-09-25T09:46:13.542Z,21.06
2016-09-25T09:47:14.111Z,21.06
2016-09-25T09:48:12.507Z,21.05
2016-09-25T09:49:13.539Z,21.04
2016-09-25T09:50:13.896Z,21.06
2016-09-25T09:51:13.615Z,21.06
2016-09-25T09:52:14.120Z,21.06
2016-09-25T09:53:09.311Z,21.05
2016-09-25T09:54:12.790Z,21.13
2016-09-25T09:55:13.295Z,21.05
2016-09-25T09:56:13.268Z,21.06
2016-09-25T09:57:13.899Z,21.06
2016-09-25T09:58:12.951Z,21.10
2016-09-25T09:59:12.373Z,21.06
2016-09-25T10:00:15.009Z,21.06
2016-09-25T10:01:12.709Z,21.06
2016-09-25T10:02:12.218Z,21.06
2016-09-25T10:03:12.533Z,21.07
2016-09-25T10:04:12.577Z,21.23
2016-09-25T10:05:14.070Z,21.10
2016-09-25T10:06:13.760Z,21.11
2016-09-25T10:07:13.080Z,21.07
2016-09-25T10:08:12.999Z,21.11
2016-09-25T10:09:13.976Z,21.06
2016-09-25T10:10:10.685Z,21.06
2016-09-25T10:11:13.790Z,21.06
2016-09-25T10:12:12.442Z,21.07
2016-09-25T10:13:12.936Z,21.06
2016-09-25T10:14:12.981Z,21.09
2016-09-25T10:15:12.286Z,21.58
2016-09-25T10:16:12.719Z,21.15
2016-09-25T10:17:10.198Z,21.08
2016-09-25T10:18:12.844Z,21.08
2016-09-25T10:19:14.427Z,21.06
2016-09-25T10:20:12.616Z,21.07
2016-09-25T10:21:12.591Z,21.07
2016-09-25T10:22:12.028Z,21.07
2016-09-25T10:23:13.638Z,21.09
2016-09-25T10:24:12.906Z,21.06
2016-09-25T10:25:10.816Z,21.06
2016-09-25T10:26:12.870Z,21.06
2016-09-25T10:27:12.689Z,21.09
2016-09-25T10:28:12.508Z,21.06
2016-09-25T10:29:13.044Z,21.07
2016-09-25T10:30:13.339Z,21.10
2016-09-25T10:31:12.392Z,21.06
2016-09-25T10:32:14.269Z,21.07
2016-09-25T10:33:12.965Z,21.07
2016-09-25T10:34:14.080Z,21.07
2016-09-25T10:35:13.973Z,21.06
2016-09-25T10:36:13.740Z,21.06
2016-09-25T10:37:09.236Z,21.06
2016-09-25T10:38:12.241Z,21.07
2016-09-25T10:39:11.962Z,21.08
2016-09-25T10:40:12.952Z,21.11
2016-09-25T10:41:12.319Z,21.07
2016-09-25T10:42:11.962Z,21.07
2016-09-25T10:43:13.314Z,21.07
2016-09-25T10:44:12.490Z,21.08
2016-09-25T10:45:12.956Z,21.07
2016-09-25T10:46:12.994Z,21.07
2016-09-25T10:47:13.460Z,21.08
2016-09-25T10:48:13.188Z,21.08
2016-09-25T10:49:12.853Z,21.08
2016-09-25T10:50:13.213Z,21.09
2016-09-25T10:51:14.876Z,21.09
2016-09-25T10:52:12.048Z,21.09
2016-09-25T10:53:12.340Z,21.08
2016-09-25T10:54:12.459Z,21.09
2016-09-25T10:55:16.823Z,21.09
2016-09-25T10:56:13.684Z,21.09
2016-09-25T10:57:11.985Z,21.09
2016-09-25T10:58:12.480Z,21.09
2016-09-25T10:59:13.759Z,21.09
2016-09-25T11:00:13.374Z,21.09
2016-09-25T11:01:12.344Z,21.10
2016-09-25T11:02:12.182Z,21.10
2016-09-25T11:03:13.586Z,21.11
2016-09-25T11:04:13.353Z,21.09
2016-09-25T11:05:13.336Z,21.10
2016-09-25T11:06:12.347Z,21.09
2016-09-25T11:07:13.302Z,21.09
2016-09-25T11:08:13.570Z,21.10
2016-09-25T11:09:13.076Z,21.10
2016-09-25T11:10:13.303Z,21.13
2016-09-25T11:11:15.249Z,21.09
2016-09-25T11:12:15.483Z,21.10
2016-09-25T11:13:13.074Z,21.10
2016-09-25T11:14:14.113Z,21.10
2016-09-25T11:15:13.396Z,21.14
2016-09-25T11:16:18.187Z,21.14
2016-09-25T11:17:13.834Z,21.11
2016-09-25T11:18:14.273Z,21.11
2016-09-25T11:19:13.477Z,21.11
2016-09-25T11:20:13.414Z,21.11
2016-09-25T11:21:13.779Z,21.15
2016-09-25T11:22:10.748Z,21.10
2016-09-25T11:23:12.448Z,21.64
2016-09-25T11:24:12.217Z,21.69
2016-09-25T11:25:14.090Z,21.72
2016-09-25T11:26:13.533Z,21.74
2016-09-25T11:27:12.693Z,21.76
2016-09-25T11:28:13.946Z,21.75
2016-09-25T11:29:13.183Z,21.48
2016-09-25T11:30:13.393Z,21.27
2016-09-25T11:31:14.104Z,21.18
2016-09-25T11:32:13.814Z,21.17
2016-09-25T11:33:13.812Z,21.15
2016-09-25T11:34:12.386Z,21.13
2016-09-25T11:35:12.600Z,21.14
2016-09-25T11:36:14.378Z,21.13
2016-09-25T11:37:13.568Z,21.15
2016-09-25T11:38:10.107Z,21.08
2016-09-25T11:39:13.614Z,21.05
2016-09-25T11:40:12.470Z,21.02
2016-09-25T11:41:12.118Z,20.94
2016-09-25T11:42:13.093Z,20.89
2016-09-25T11:43:13.678Z,20.89
2016-09-25T11:44:10.542Z,20.90
2016-09-25T11:45:11.753Z,20.87
2016-09-25T11:46:13.189Z,20.88
2016-09-25T11:47:13.858Z,20.83
2016-09-25T11:48:12.062Z,20.84
2016-09-25T11:49:13.186Z,20.85
2016-09-25T11:50:13.516Z,20.86
2016-09-25T11:51:13.773Z,20.87
2016-09-25T11:52:13.993Z,20.85
2016-09-25T11:53:14.129Z,20.85
2016-09-25T11:54:13.287Z,20.89
2016-09-25T11:55:14.736Z,20.86
2016-09-25T11:56:13.684Z,20.88
2016-09-25T11:57:12.563Z,20.84
2016-09-25T11:58:12.081Z,20.83
2016-09-25T11:59:13.323Z,20.85
2016-09-25T12:00:11.796Z,20.85
2016-09-25T12:01:12.381Z,20.86
2016-09-25T12:02:14.693Z,20.86
2016-09-25T12:03:13.206Z,20.86
2016-09-25T12:04:14.832Z,20.85
2016-09-25T12:05:12.169Z,20.84
2016-09-25T12:06:12.597Z,20.89
2016-09-25T12:07:12.410Z,20.84
2016-09-25T12:08:12.917Z,20.86
2016-09-25T12:09:13.643Z,20.83
2016-09-25T12:10:15.031Z,20.83
2016-09-25T12:11:12.161Z,20.85
2016-09-25T12:12:13.399Z,20.86
2016-09-25T12:13:12.967Z,20.85
2016-09-25T12:14:13.427Z,20.87
2016-09-25T12:15:15.921Z,20.89
2016-09-25T12:16:12.249Z,20.88
2016-09-25T12:17:13.377Z,20.93
2016-09-25T12:18:12.312Z,20.89
2016-09-25T12:19:13.032Z,20.87
2016-09-25T12:20:13.087Z,20.85
2016-09-25T12:21:13.468Z,20.87
2016-09-25T12:22:13.112Z,21.36
2016-09-25T12:23:11.398Z,20.88
2016-09-25T12:24:12.812Z,20.88
2016-09-25T12:25:13.452Z,20.87
2016-09-25T12:26:12.888Z,20.90
2016-09-25T12:27:09.961Z,20.87
2016-09-25T12:28:10.865Z,20.87
2016-09-25T12:29:12.588Z,21.43
2016-09-25T12:30:12.908Z,21.48
2016-09-25T12:31:12.458Z,20.95
2016-09-25T12:32:11.697Z,20.90
2016-09-25T12:33:12.864Z,20.87
2016-09-25T12:34:12.238Z,20.89
2016-09-25T12:35:13.698Z,20.87
2016-09-25T12:36:12.027Z,20.89
2016-09-25T12:37:14.077Z,20.90
2016-09-25T12:38:12.237Z,20.90
2016-09-25T12:39:12.453Z,20.90
2016-09-25T12:40:12.285Z,20.87
2016-09-25T12:41:13.617Z,20.87
2016-09-25T12:42:12.544Z,20.85
2016-09-25T12:43:12.933Z,20.85
2016-09-25T12:44:12.163Z,20.86
2016-09-25T12:45:10.782Z,20.85
2016-09-25T12:46:12.382Z,20.88
2016-09-25T12:47:13.388Z,20.83
2016-09-25T12:48:12.166Z,20.84
2016-09-25T12:49:13.616Z,20.84
2016-09-25T12:50:12.937Z,20.85
2016-09-25T12:51:14.268Z,20.87
2016-09-25T12:52:11.803Z,20.91